Time;durP1;ratioP1;P1;durP2;ratioP2;P2;SDS_P1;SDS_P2;PMS_P1;PMS_P2;Temp;Humidity;BMP_temperature;BMP_pressure;BME280_temperature;BME280_humidity;BME280_pressure;Samples;Min_cycle;Max_cycle;Signal;HPM_P1;HPM_P2
2022/10/11 00:00:42;;;;;;;18.10;3.05;;;7.20;99.90;;;;;;5069125;28;20039;-77
2022/10/11 00:03:08;;;;;;;16.45;3.35;;;7.10;99.90;;;;;;5067632;28;20852;-77
2022/10/11 00:05:34;;;;;;;23.13;3.58;;;7.10;99.90;;;;;;5070076;28;20376;-77
2022/10/11 00:08:00;;;;;;;20.92;2.83;;;7.10;99.90;;;;;;5085208;28;20036;-77
2022/10/11 00:10:26;;;;;;;28.85;3.60;;;7.10;99.90;;;;;;5067763;28;20089;-78
2022/10/11 00:12:52;;;;;;;18.88;2.72;;;7.10;99.90;;;;;;5065982;28;20036;-78
2022/10/11 00:15:20;;;;;;;24.60;2.50;;;7.10;99.90;;;;;;5068260;28;20058;-77
2022/10/11 00:17:46;;;;;;;18.90;3.13;;;7.00;99.90;;;;;;5062952;28;20032;-77
2022/10/11 00:20:15;;;;;;;18.73;2.50;;;7.00;99.90;;;;;;5067020;28;20040;-79
2022/10/11 00:22:42;;;;;;;23.52;3.22;;;7.00;99.90;;;;;;5052117;28;20101;-78
2022/10/11 00:25:09;;;;;;;19.23;2.92;;;7.00;99.90;;;;;;5066684;28;20036;-77
2022/10/11 00:27:35;;;;;;;18.05;3.13;;;7.00;99.90;;;;;;5048902;28;20114;-78
2022/10/11 00:30:07;;;;;;;15.55;2.55;;;7.00;99.90;;;;;;5065169;28;20040;-77
2022/10/11 00:32:34;;;;;;;16.60;2.60;;;7.10;99.90;;;;;;5064507;28;20089;-78
2022/10/11 00:35:05;;;;;;;21.98;3.03;;;7.20;99.90;;;;;;5064287;28;20683;-78
2022/10/11 00:37:35;;;;;;;21.42;3.17;;;7.10;99.90;;;;;;5051200;28;20052;-79
2022/10/11 00:40:03;;;;;;;17.15;2.88;;;7.20;99.90;;;;;;5048964;28;20064;-77
2022/10/11 00:42:28;;;;;;;28.13;3.30;;;7.20;99.90;;;;;;5051904;28;20128;-77
2022/10/11 00:45:26;;;;;;;20.63;2.95;;;7.20;99.90;;;;;;5052769;28;20075;-77
2022/10/11 00:47:54;;;;;;;27.38;3.15;;;7.10;99.90;;;;;;5046737;28;20135;-77
2022/10/11 00:50:22;;;;;;;20.92;2.72;;;7.10;99.90;;;;;;5047405;28;21022;-77
2022/10/11 00:52:53;;;;;;;24.63;2.58;;;7.00;99.90;;;;;;5063619;28;20401;-77
2022/10/11 00:55:21;;;;;;;18.48;2.75;;;7.00;99.90;;;;;;5044840;28;20044;-77
2022/10/11 00:57:51;;;;;;;19.65;2.42;;;7.10;99.90;;;;;;5066487;28;20035;-77
2022/10/11 01:00:18;;;;;;;25.25;2.78;;;7.10;99.90;;;;;;5050525;28;20028;-76
2022/10/11 01:02:45;;;;;;;13.68;2.70;;;7.00;99.90;;;;;;5064994;28;20096;-77
2022/10/11 01:05:15;;;;;;;19.85;2.67;;;7.00;99.90;;;;;;5051031;28;20052;-78
2022/10/11 01:07:41;;;;;;;20.50;2.90;;;6.90;99.90;;;;;;5066582;28;20589;-77
2022/10/11 01:10:07;;;;;;;21.45;2.67;;;6.90;99.90;;;;;;5067642;28;20538;-78
2022/10/11 01:12:33;;;;;;;23.65;2.97;;;6.90;99.90;;;;;;5048418;28;20238;-77
2022/10/11 01:15:13;;;;;;;20.98;2.83;;;7.00;99.90;;;;;;5051459;28;20044;-77
2022/10/11 01:18:06;;;;;;;17.70;2.22;;;6.90;99.90;;;;;;5081019;28;20070;-76
2022/10/11 01:21:09;;;;;;;13.30;2.70;;;6.70;99.90;;;;;;5064869;28;20036;-79
2022/10/11 01:23:47;;;;;;;16.45;2.40;;;6.70;99.90;;;;;;5067080;28;20123;-79
2022/10/11 01:26:54;;;;;;;13.20;2.42;;;6.60;99.90;;;;;;5067032;28;20036;-79
2022/10/11 01:29:40;;;;;;;14.27;2.45;;;6.60;99.90;;;;;;5068873;28;20050;-79
2022/10/11 01:32:21;;;;;;;24.75;3.00;;;6.50;99.90;;;;;;5069331;28;20044;-77
2022/10/11 01:34:55;;;;;;;17.60;2.22;;;6.60;99.90;;;;;;5066850;28;20391;-79
2022/10/11 01:37:41;;;;;;;21.05;3.00;;;6.50;99.90;;;;;;5066145;28;20085;-78
2022/10/11 01:40:08;;;;;;;;;;;6.60;99.90;;;;;;5065915;28;20067;-79
2022/10/11 01:42:38;;;;;;;14.65;2.33;;;6.50;99.90;;;;;;5070311;28;19923;-78
2022/10/11 01:45:09;;;;;;;24.35;3.17;;;6.50;99.90;;;;;;5054471;28;20100;-79
2022/10/11 01:47:35;;;;;;;19.73;2.78;;;6.50;99.90;;;;;;5073111;28;20043;-78
2022/10/11 01:50:01;;;;;;;22.60;2.92;;;6.50;99.90;;;;;;5072296;28;20032;-77
2022/10/11 01:52:30;;;;;;;23.75;2.63;;;6.50;99.90;;;;;;5072124;28;20071;-77
2022/10/11 01:55:17;;;;;;;24.38;2.85;;;6.40;99.90;;;;;;5074139;28;20499;-79
2022/10/11 01:58:08;;;;;;;22.45;2.50;;;6.50;99.90;;;;;;5065974;28;20112;-79
2022/10/11 02:00:41;;;;;;;21.58;2.60;;;6.40;99.90;;;;;;5072181;28;20056;-79
2022/10/11 02:03:15;;;;;;;29.52;3.13;;;6.40;99.90;;;;;;5065967;28;20045;-77
2022/10/11 02:06:08;;;;;;;23.85;2.80;;;6.50;99.90;;;;;;5072034;28;20052;-80
2022/10/11 02:08:54;;;;;;;15.50;2.50;;;6.50;99.90;;;;;;5050936;28;20090;-79
2022/10/11 02:11:31;;;;;;;21.23;2.70;;;6.60;99.90;;;;;;5070878;28;20047;-77
2022/10/11 02:14:09;;;;;;;22.10;2.60;;;6.50;99.90;;;;;;5069691;28;20036;-77
2022/10/11 02:16:43;;;;;;;20.55;2.22;;;6.60;99.90;;;;;;5069695;28;20032;-77
2022/10/11 02:19:12;;;;;;;22.70;3.03;;;6.60;99.90;;;;;;5068054;28;20054;-78
2022/10/11 02:21:41;;;;;;;20.25;2.78;;;6.60;99.90;;;;;;5053803;28;20421;-77
2022/10/11 02:24:23;;;;;;;21.30;3.45;;;6.50;99.90;;;;;;5048158;28;20122;-78
2022/10/11 02:26:53;;;;;;;19.48;3.05;;;6.40;99.90;;;;;;5069192;28;20433;-77
2022/10/11 02:29:23;;;;;;;19.00;2.85;;;6.40;99.90;;;;;;5073474;28;20463;-79
2022/10/11 02:31:50;;;;;;;23.40;2.70;;;6.40;99.90;;;;;;5068059;28;20055;-77
2022/10/11 02:34:28;;;;;;;19.60;3.38;;;6.40;99.90;;;;;;5071891;28;20477;-78
2022/10/11 02:37:13;;;;;;;22.17;2.92;;;6.40;99.90;;;;;;5053182;28;20052;-79
2022/10/11 02:39:47;;;;;;;19.60;2.92;;;6.40;99.90;;;;;;5054367;28;20044;-79
2022/10/11 02:42:21;;;;;;;20.58;2.60;;;6.40;99.90;;;;;;5052864;28;20086;-77
2022/10/11 02:44:59;;;;;;;19.27;2.55;;;6.40;99.90;;;;;;5056114;28;20055;-78
2022/10/11 02:47:28;;;;;;;14.90;2.47;;;6.40;99.90;;;;;;5065825;28;20051;-78
2022/10/11 02:49:54;;;;;;;21.45;2.42;;;6.40;99.90;;;;;;5071047;28;20441;-77
2022/10/11 02:52:19;;;;;;;19.65;2.92;;;6.30;99.90;;;;;;5074091;28;20040;-79
2022/10/11 02:54:45;;;;;;;23.45;2.50;;;6.30;99.90;;;;;;5057400;28;20047;-80
2022/10/11 02:57:11;;;;;;;18.67;2.72;;;6.20;99.90;;;;;;5054800;28;20143;-79
2022/10/11 02:59:36;;;;;;;24.05;3.30;;;6.20;99.90;;;;;;5060052;28;20384;-79
2022/10/11 03:02:02;;;;;;;28.55;2.60;;;6.20;99.90;;;;;;5057304;28;20436;-77
2022/10/11 03:04:28;;;;;;;18.58;2.50;;;6.20;99.90;;;;;;5053274;28;20044;-78
2022/10/11 03:06:53;;;;;;;19.77;2.70;;;6.10;99.90;;;;;;5071185;28;20108;-79
2022/10/11 03:09:19;;;;;;;23.30;2.58;;;6.20;99.90;;;;;;5068559;28;20075;-77
2022/10/11 03:11:45;;;;;;;25.70;2.42;;;6.30;99.90;;;;;;5054426;28;20044;-79
2022/10/11 03:14:10;;;;;;;16.42;2.30;;;6.20;99.90;;;;;;5056452;28;20075;-78
2022/10/11 03:16:36;;;;;;;20.55;2.45;;;6.20;99.90;;;;;;5071790;28;20066;-77
2022/10/11 03:19:02;;;;;;;25.52;2.53;;;6.20;99.90;;;;;;5069091;28;20036;-78
2022/10/11 03:21:29;;;;;;;12.65;2.25;;;6.10;99.90;;;;;;5089858;28;20503;-79
2022/10/11 03:23:55;;;;;;;20.42;2.47;;;6.10;99.90;;;;;;5054501;28;20040;-78
2022/10/11 03:26:20;;;;;;;24.40;2.53;;;6.10;99.90;;;;;;5070715;28;20062;-78
2022/10/11 03:28:46;;;;;;;17.55;2.75;;;6.10;99.90;;;;;;5072330;28;20050;-79
2022/10/11 03:31:12;;;;;;;13.18;2.30;;;6.10;99.90;;;;;;5069016;28;20032;-79
2022/10/11 03:33:37;;;;;;;20.40;2.42;;;5.90;99.90;;;;;;5049727;28;20063;-78
2022/10/11 03:36:04;;;;;;;22.90;3.20;;;5.90;99.90;;;;;;5050327;28;20044;-78
2022/10/11 03:38:30;;;;;;;18.88;2.80;;;5.90;99.90;;;;;;5050587;28;20071;-80
2022/10/11 03:40:56;;;;;;;9.90;2.38;;;5.90;99.90;;;;;;5069781;28;20040;-77
2022/10/11 03:43:21;;;;;;;20.10;2.63;;;5.90;99.90;;;;;;5052301;28;20040;-77
2022/10/11 03:45:47;;;;;;;22.98;3.00;;;5.90;99.90;;;;;;5088894;28;20035;-78
2022/10/11 03:48:13;;;;;;;15.85;2.47;;;5.80;99.90;;;;;;5065928;28;21521;-79
2022/10/11 03:50:38;;;;;;;21.73;2.75;;;5.80;99.90;;;;;;5067168;28;20185;-77
2022/10/11 03:53:06;;;;;;;18.05;2.50;;;5.80;99.90;;;;;;5073296;28;20043;-79
2022/10/11 03:55:32;;;;;;;22.70;2.70;;;5.80;99.90;;;;;;5059285;28;20367;-77
2022/10/11 03:57:57;;;;;;;21.92;2.58;;;5.90;99.90;;;;;;5081682;28;20055;-78
2022/10/11 04:00:23;;;;;;;19.52;2.42;;;5.90;99.90;;;;;;5067436;28;20048;-77
2022/10/11 04:02:49;;;;;;;18.25;2.65;;;5.80;99.90;;;;;;5054398;28;20032;-78
2022/10/11 04:05:14;;;;;;;12.35;2.50;;;5.70;99.90;;;;;;5065523;28;20395;-79
2022/10/11 04:07:40;;;;;;;22.55;2.67;;;5.70;99.90;;;;;;5054603;28;20490;-78
2022/10/11 04:10:06;;;;;;;19.00;2.67;;;5.70;99.90;;;;;;5052807;28;20361;-79
2022/10/11 04:12:33;;;;;;;19.58;2.95;;;5.70;99.90;;;;;;5070056;28;20485;-78
2022/10/11 04:14:58;;;;;;;20.98;3.00;;;5.70;99.90;;;;;;5055209;28;20386;-78
2022/10/11 04:17:24;;;;;;;16.08;3.17;;;5.70;99.90;;;;;;5068624;28;20036;-78
2022/10/11 04:19:50;;;;;;;19.70;3.53;;;5.70;99.90;;;;;;5053999;28;20039;-80
2022/10/11 04:22:15;;;;;;;19.05;3.72;;;5.90;99.90;;;;;;5053379;28;20036;-78
2022/10/11 04:24:41;;;;;;;23.17;3.03;;;5.70;99.90;;;;;;5050638;28;20044;-79
2022/10/11 04:27:06;;;;;;;17.40;3.53;;;5.70;99.90;;;;;;5067069;28;20056;-80
2022/10/11 04:29:32;;;;;;;20.48;4.18;;;5.70;99.90;;;;;;5072771;28;20123;-78
2022/10/11 04:31:58;;;;;;;15.73;2.85;;;5.70;99.90;;;;;;5068375;28;20581;-78
2022/10/11 04:34:24;;;;;;;10.27;2.38;;;5.60;99.90;;;;;;5051165;28;20050;-77
2022/10/11 04:36:52;;;;;;;24.80;3.03;;;5.50;99.90;;;;;;5052590;28;20063;-78
2022/10/11 04:39:18;;;;;;;24.40;2.90;;;5.50;99.90;;;;;;5072803;28;20505;-77
2022/10/11 04:41:44;;;;;;;17.20;2.47;;;5.60;99.90;;;;;;5052231;28;20093;-78
2022/10/11 04:44:09;;;;;;;17.08;2.67;;;5.60;99.90;;;;;;5053214;28;20483;-77
2022/10/11 04:46:35;;;;;;;19.65;2.55;;;5.60;99.90;;;;;;5067490;28;20497;-80
2022/10/11 04:49:01;;;;;;;23.83;2.95;;;5.60;99.90;;;;;;5050400;28;20079;-78
2022/10/11 04:51:27;;;;;;;15.73;2.83;;;5.60;99.90;;;;;;5068540;28;20112;-77
2022/10/11 04:53:53;;;;;;;21.70;2.95;;;5.50;99.90;;;;;;5068823;28;20036;-78
2022/10/11 04:56:56;;;;;;;21.80;2.63;;;5.50;99.90;;;;;;5069576;28;20040;-78
2022/10/11 04:59:22;;;;;;;25.00;3.15;;;5.50;99.90;;;;;;5071798;28;20047;-78
2022/10/11 05:01:48;;;;;;;22.58;3.03;;;5.60;99.90;;;;;;5075459;28;20320;-78
2022/10/11 05:04:14;;;;;;;20.58;2.53;;;5.70;99.90;;;;;;5070649;28;20998;-78
2022/10/11 05:06:39;;;;;;;18.98;2.78;;;5.70;99.90;;;;;;5053529;28;20486;-79
2022/10/11 05:09:05;;;;;;;25.05;3.08;;;5.70;99.90;;;;;;5067654;28;20097;-79
2022/10/11 05:11:31;;;;;;;17.42;2.83;;;5.70;99.90;;;;;;5049858;28;20083;-77
2022/10/11 05:13:59;;;;;;;13.88;2.50;;;5.70;99.90;;;;;;5070392;28;20086;-79
2022/10/11 05:16:25;;;;;;;23.27;2.85;;;5.80;99.90;;;;;;5047907;28;20048;-78
2022/10/11 05:18:51;;;;;;;26.15;3.03;;;5.80;99.90;;;;;;5090448;28;20043;-79
2022/10/11 05:21:25;;;;;;;19.23;2.72;;;5.70;99.90;;;;;;5050749;28;20036;-79
2022/10/11 05:23:52;;;;;;;20.35;2.90;;;5.80;99.90;;;;;;5048653;28;20123;-79
2022/10/11 05:26:19;;;;;;;20.48;3.08;;;5.70;99.90;;;;;;5071151;28;20124;-80
2022/10/11 05:28:45;;;;;;;16.40;3.60;;;5.70;99.90;;;;;;5067967;28;20500;-77
2022/10/11 05:31:12;;;;;;;12.65;3.03;;;5.80;99.90;;;;;;5051783;28;20402;-79
2022/10/11 05:33:37;;;;;;;20.08;3.60;;;5.80;99.90;;;;;;5052100;28;20042;-78
2022/10/11 05:36:06;;;;;;;18.75;2.95;;;5.90;99.90;;;;;;5087476;28;20129;-79
2022/10/11 05:38:32;;;;;;;17.35;3.08;;;5.90;99.90;;;;;;5067050;28;20083;-79
2022/10/11 05:41:30;;;;;;;22.33;3.67;;;5.90;99.90;;;;;;5064179;28;20052;-78
2022/10/11 05:43:56;;;;;;;19.45;3.10;;;5.90;99.90;;;;;;5050102;28;20044;-77
2022/10/11 05:46:22;;;;;;;19.67;3.03;;;6.00;99.90;;;;;;5068423;28;20047;-76
2022/10/11 05:48:47;;;;;;;19.73;3.65;;;6.00;99.90;;;;;;5066829;28;20033;-78
2022/10/11 05:51:13;;;;;;;21.73;3.10;;;6.00;99.90;;;;;;5063716;28;20032;-80
2022/10/11 05:53:39;;;;;;;21.13;3.03;;;6.00;99.90;;;;;;5052739;28;20050;-79
2022/10/11 05:56:15;;;;;;;21.65;3.00;;;6.00;99.90;;;;;;5053141;28;20036;-79
2022/10/11 05:58:41;;;;;;;19.92;2.97;;;6.00;99.90;;;;;;5066303;28;20042;-78
2022/10/11 06:01:06;;;;;;;17.05;2.92;;;6.00;99.90;;;;;;5064816;28;20384;-77
2022/10/11 06:03:32;;;;;;;19.98;3.10;;;5.90;99.90;;;;;;5067087;28;20036;-77
2022/10/11 06:06:01;;;;;;;19.77;3.47;;;5.90;99.90;;;;;;5049377;28;20048;-78
2022/10/11 06:08:27;;;;;;;14.73;2.83;;;5.80;99.90;;;;;;5030297;28;20039;-79
2022/10/11 06:10:52;;;;;;;20.08;2.75;;;5.90;99.90;;;;;;5066656;28;20052;-77
2022/10/11 06:13:18;;;;;;;16.52;2.72;;;5.90;99.90;;;;;;5065992;28;20140;-77
2022/10/11 06:15:44;;;;;;;18.67;2.78;;;5.90;99.90;;;;;;5068675;28;20032;-78
2022/10/11 06:18:09;;;;;;;34.38;3.80;;;6.00;99.90;;;;;;5049803;28;20146;-79
2022/10/11 06:20:36;;;;;;;19.67;3.20;;;6.00;99.90;;;;;;5067862;28;20032;-78
2022/10/11 06:23:01;;;;;;;19.58;3.08;;;6.00;99.90;;;;;;5047979;28;20145;-79
2022/10/11 06:25:27;;;;;;;15.23;3.30;;;6.00;99.90;;;;;;5064498;28;20105;-78
2022/10/11 06:27:53;;;;;;;20.38;3.72;;;6.10;99.90;;;;;;5048104;28;20059;-77
2022/10/11 06:30:18;;;;;;;22.75;3.53;;;6.20;99.90;;;;;;5066440;28;20293;-79
2022/10/11 06:32:44;;;;;;;24.15;3.88;;;6.30;99.90;;;;;;5053196;28;20032;-79
2022/10/11 06:35:10;;;;;;;21.13;3.13;;;6.30;99.90;;;;;;5048169;28;20076;-78
2022/10/11 06:37:36;;;;;;;30.27;3.55;;;6.30;99.90;;;;;;5057873;28;20055;-79
2022/10/11 06:40:02;;;;;;;16.83;2.97;;;6.50;99.90;;;;;;5029619;28;20067;-79
2022/10/11 06:42:27;;;;;;;19.27;2.80;;;6.50;99.90;;;;;;5042362;28;20526;-79
2022/10/11 06:44:53;;;;;;;25.95;3.20;;;6.60;99.90;;;;;;5028903;28;20056;-80
2022/10/11 06:47:19;;;;;;;19.00;2.88;;;6.70;99.90;;;;;;5048423;28;21835;-78
2022/10/11 06:49:45;;;;;;;23.48;2.85;;;6.70;99.90;;;;;;5042018;28;20049;-78
2022/10/11 06:52:11;;;;;;;25.05;2.97;;;6.70;99.90;;;;;;5027501;28;20049;-77
2022/10/11 06:54:37;;;;;;;21.50;3.20;;;6.80;99.90;;;;;;5044345;28;20102;-78
2022/10/11 06:57:02;;;;;;;22.17;3.13;;;6.80;99.90;;;;;;5048677;28;20048;-80
2022/10/11 06:59:28;;;;;;;18.50;3.15;;;6.90;99.90;;;;;;5032136;28;20135;-80
2022/10/11 07:01:53;;;;;;;14.20;2.45;;;7.00;99.90;;;;;;5045587;28;20107;-78
2022/10/11 07:04:20;;;;;;;20.77;3.10;;;7.00;99.90;;;;;;5028742;28;20197;-77
2022/10/11 07:06:46;;;;;;;18.27;3.10;;;7.10;99.90;;;;;;5043808;28;20080;-78
2022/10/11 07:09:12;;;;;;;21.40;3.25;;;7.20;99.90;;;;;;5046172;28;20091;-77
2022/10/11 07:11:37;;;;;;;17.75;2.90;;;7.20;99.90;;;;;;5035285;28;20052;-79
2022/10/11 07:14:06;;;;;;;22.50;3.25;;;7.30;99.90;;;;;;5047828;28;20423;-80
2022/10/11 07:16:35;;;;;;;21.58;3.33;;;7.40;99.90;;;;;;5051974;28;20162;-78
2022/10/11 07:19:04;;;;;;;21.58;3.13;;;7.50;99.90;;;;;;5050532;28;20045;-76
2022/10/11 07:21:32;;;;;;;17.70;2.70;;;7.60;99.90;;;;;;5051758;28;20063;-79
2022/10/11 07:23:58;;;;;;;21.08;3.22;;;7.70;99.90;;;;;;5035036;28;20146;-76
2022/10/11 07:26:24;;;;;;;23.10;3.08;;;7.70;99.90;;;;;;5056969;28;20157;-77
2022/10/11 07:28:50;;;;;;;18.55;2.80;;;7.80;99.90;;;;;;5041531;28;20048;-78
2022/10/11 07:31:19;;;;;;;22.30;2.85;;;7.90;99.90;;;;;;5050459;28;20881;-79
2022/10/11 07:33:45;;;;;;;17.50;2.70;;;8.00;99.90;;;;;;5045220;28;20395;-78
2022/10/11 07:36:12;;;;;;;19.70;3.20;;;8.20;99.90;;;;;;5044811;28;20156;-79
2022/10/11 07:38:42;;;;;;;21.30;2.78;;;8.30;99.90;;;;;;5046709;28;20058;-76
2022/10/11 07:41:08;;;;;;;20.42;2.88;;;8.30;99.90;;;;;;5065691;28;20098;-77
2022/10/11 07:43:35;;;;;;;17.90;2.90;;;8.40;99.90;;;;;;5053861;28;20036;-76
2022/10/11 07:46:02;;;;;;;16.25;2.95;;;8.60;99.90;;;;;;5047581;28;22158;-76
2022/10/11 07:48:30;;;;;;;20.63;2.88;;;8.70;99.90;;;;;;5051721;28;20407;-79
2022/10/11 07:51:07;;;;;;;17.55;2.90;;;8.80;99.90;;;;;;5064626;28;20036;-80
2022/10/11 07:53:38;;;;;;;23.60;2.90;;;8.90;99.90;;;;;;5068652;28;20044;-76
2022/10/11 07:56:04;;;;;;;21.45;2.75;;;9.00;99.90;;;;;;5065786;28;20064;-77
2022/10/11 07:58:30;;;;;;;21.55;3.00;;;9.10;99.90;;;;;;5062726;28;20723;-75
2022/10/11 08:00:55;;;;;;;21.00;2.58;;;9.10;99.90;;;;;;5068792;28;20418;-79
2022/10/11 08:03:21;;;;;;;18.10;2.67;;;9.30;99.90;;;;;;5072115;28;20070;-78
2022/10/11 08:05:47;;;;;;;20.67;2.80;;;9.30;99.90;;;;;;5069584;28;20044;-79
2022/10/11 08:08:13;;;;;;;14.82;2.28;;;9.40;99.90;;;;;;5071520;28;20417;-76
2022/10/11 08:10:39;;;;;;;22.50;2.95;;;9.40;99.90;;;;;;5054797;28;20097;-76
2022/10/11 08:13:04;;;;;;;21.95;2.88;;;9.40;99.90;;;;;;5052381;28;20131;-79
2022/10/11 08:15:30;;;;;;;18.17;2.72;;;9.50;99.90;;;;;;5070039;28;20801;-80
2022/10/11 08:17:56;;;;;;;17.73;2.88;;;9.50;99.90;;;;;;5073081;28;20147;-79
2022/10/11 08:20:21;;;;;;;22.35;2.65;;;9.60;99.90;;;;;;5068794;28;20522;-78
2022/10/11 08:22:47;;;;;;;19.35;2.97;;;9.70;99.90;;;;;;5088385;28;20055;-76
2022/10/11 08:25:13;;;;;;;19.63;2.97;;;9.80;99.90;;;;;;5057039;28;20394;-78
2022/10/11 08:27:38;;;;;;;17.45;2.65;;;9.90;99.90;;;;;;5069974;28;20056;-77
2022/10/11 08:30:05;;;;;;;14.23;2.88;;;10.00;99.90;;;;;;5067547;28;20074;-81
2022/10/11 08:32:32;;;;;;;22.67;2.65;;;10.10;99.90;;;;;;5085569;28;20070;-76
2022/10/11 08:34:58;;;;;;;19.58;3.00;;;10.20;99.90;;;;;;5078712;28;20040;-79
2022/10/11 08:37:24;;;;;;;16.77;2.88;;;10.30;99.90;;;;;;5057129;28;20040;-81
2022/10/11 08:39:49;;;;;;;19.00;3.15;;;10.30;99.90;;;;;;5070151;28;20087;-78
2022/10/11 08:42:57;;;;;;;13.88;2.50;;;10.40;99.90;;;;;;5073486;28;20499;-77
2022/10/11 08:45:36;;;;;;;18.88;2.95;;;10.50;99.90;;;;;;4988115;28;20074;-80
2022/10/11 08:48:11;;;;;;;15.52;2.90;;;10.60;99.90;;;;;;4981504;28;20058;-78
2022/10/11 08:50:37;;;;;;;;;;;10.70;99.90;;;;;;4959198;28;20065;-81
2022/10/11 08:53:14;;;;;;;19.65;2.95;;;10.70;99.90;;;;;;4954252;28;19986;-78
2022/10/11 08:55:48;;;;;;;19.17;2.90;;;10.80;99.90;;;;;;4973244;28;20054;-75
2022/10/11 08:58:18;;;;;;;16.37;2.70;;;10.90;99.90;;;;;;4960544;28;20644;-79
2022/10/11 09:00:47;;;;;;;21.50;2.97;;;11.00;99.90;;;;;;4969499;28;20050;-75
2022/10/11 09:03:33;;;;;;;24.67;2.97;;;11.20;99.90;;;;;;4979112;28;20434;-76
2022/10/11 09:06:37;;;;;;;19.95;2.90;;;11.20;99.90;;;;;;5002174;28;20053;-76
2022/10/11 09:09:32;;;;;;;24.05;3.05;;;11.30;99.90;;;;;;4961003;28;20054;-80
2022/10/11 09:12:25;;;;;;;20.85;2.63;;;11.40;99.90;;;;;;4934030;29;20051;-76
2022/10/11 09:15:18;;;;;;;15.85;2.22;;;11.60;99.90;;;;;;4935031;29;20432;-80
2022/10/11 09:18:11;;;;;;;16.33;2.58;;;11.80;99.90;;;;;;4934312;29;20039;-81
2022/10/11 09:20:49;;;;;;;18.88;2.95;;;11.90;99.90;;;;;;4933739;29;20473;-79
2022/10/11 09:23:35;;;;;;;21.35;2.70;;;12.00;99.90;;;;;;4972754;28;20058;-79
2022/10/11 09:26:13;;;;;;;20.50;2.83;;;12.30;99.90;;;;;;4972737;28;20474;-78
2022/10/11 09:29:09;;;;;;;19.38;2.47;;;12.30;99.90;;;;;;4956404;28;20060;-77
2022/10/11 09:31:35;;;;;;;21.35;3.05;;;12.40;99.90;;;;;;4986464;28;20077;-78
2022/10/11 09:34:10;;;;;;;19.00;3.22;;;12.40;99.90;;;;;;4956075;28;20066;-76
2022/10/11 09:36:39;;;;;;;21.25;3.40;;;12.30;99.90;;;;;;4956136;28;20042;-76
2022/10/11 09:39:13;;;;;;;28.17;4.25;;;12.50;99.90;;;;;;4970892;28;20173;-77
2022/10/11 09:41:52;;;;;;;31.13;6.32;;;12.60;99.90;;;;;;4988322;28;20057;-79
2022/10/11 09:44:23;;;;;;;19.67;3.40;;;12.80;99.90;;;;;;4955959;28;20066;-79
2022/10/11 09:46:51;;;;;;;22.45;3.08;;;12.90;99.90;;;;;;4951925;28;20043;-82
2022/10/11 09:49:20;;;;;;;14.02;2.30;;;13.00;99.90;;;;;;5028712;28;20082;-78
2022/10/11 09:51:55;;;;;;;26.05;3.58;;;13.00;99.90;;;;;;5046886;28;20056;-80
2022/10/11 09:54:37;;;;;;;18.23;2.75;;;12.90;99.90;;;;;;5067077;28;20055;-79
2022/10/11 09:57:02;;;;;;;16.13;2.50;;;12.90;99.90;;;;;;5076733;28;20033;-77
2022/10/11 09:59:34;;;;;;;15.00;2.47;;;12.90;99.90;;;;;;5050399;28;20139;-78
2022/10/11 10:02:12;;;;;;;18.10;2.60;;;13.10;99.90;;;;;;5066067;28;20091;-75
2022/10/11 10:05:23;;;;;;;19.35;3.05;;;13.20;99.90;;;;;;5064309;28;20055;-78
2022/10/11 10:08:02;;;;;;;19.23;3.17;;;13.40;99.90;;;;;;5000921;28;20056;-77
2022/10/11 10:10:39;;;;;;;15.15;3.00;;;13.50;99.90;;;;;;4992359;28;20115;-75
2022/10/11 10:13:20;;;;;;;18.52;3.05;;;13.50;99.90;;;;;;4990772;28;20406;-77
2022/10/11 10:15:49;;;;;;;16.02;2.83;;;13.60;99.90;;;;;;4995888;28;20069;-79
2022/10/11 10:18:40;;;;;;;14.68;2.65;;;13.70;99.90;;;;;;4997776;28;20045;-76
2022/10/11 10:21:09;;;;;;;24.17;2.58;;;13.80;99.90;;;;;;4992899;28;20378;-77
2022/10/11 10:23:36;;;;;;;18.08;2.67;;;13.90;99.90;;;;;;4989300;28;20477;-80
2022/10/11 10:26:34;;;;;;;16.45;2.47;;;13.90;99.90;;;;;;4989438;28;20052;-79
2022/10/11 10:29:09;;;;;;;18.55;2.65;;;13.80;99.90;;;;;;4972264;28;20451;-78
2022/10/11 10:31:47;;;;;;;16.85;2.65;;;13.90;99.90;;;;;;4987384;28;20066;-76
2022/10/11 10:34:23;;;;;;;18.50;2.20;;;14.00;99.90;;;;;;4960060;28;20042;-79
2022/10/11 10:36:59;;;;;;;14.45;2.83;;;14.10;99.90;;;;;;4957291;28;20234;-79
2022/10/11 10:39:48;;;;;;;17.65;2.20;;;14.10;99.90;;;;;;4968583;28;20108;-79
2022/10/11 10:42:17;;;;;;;13.98;2.35;;;14.30;99.90;;;;;;4971183;28;20086;-79
2022/10/11 10:44:46;;;;;;;13.55;2.72;;;14.50;99.90;;;;;;4993134;28;20041;-82
2022/10/11 10:47:42;;;;;;;19.83;3.03;;;14.50;99.90;;;;;;5008532;28;20061;-78
2022/10/11 10:50:17;;;;;;;17.50;2.78;;;14.60;99.90;;;;;;4991724;28;20045;-77
2022/10/11 10:53:01;;;;;;;12.05;2.13;;;15.00;99.90;;;;;;5007420;28;20176;-81
2022/10/11 10:55:43;;;;;;;10.30;2.20;;;15.10;99.90;;;;;;5002588;28;20137;-78
2022/10/11 10:58:35;;;;;;;14.55;2.45;;;15.00;99.90;;;;;;5007892;28;20057;-77
2022/10/11 11:01:22;;;;;;;14.13;2.30;;;15.20;99.90;;;;;;5004069;28;20469;-79
2022/10/11 11:04:00;;;;;;;17.20;2.53;;;15.20;99.90;;;;;;4999128;28;20487;-81
2022/10/11 11:06:33;;;;;;;13.52;2.38;;;15.10;99.90;;;;;;5045017;28;20091;-81
2022/10/11 11:09:21;;;;;;;16.48;2.83;;;15.10;99.90;;;;;;5065346;28;20059;-79
2022/10/11 11:12:14;;;;;;;14.07;2.20;;;15.00;99.90;;;;;;5062255;28;20068;-79
2022/10/11 11:14:51;;;;;;;14.70;2.42;;;14.80;99.90;;;;;;5061166;28;20037;-77
2022/10/11 11:17:24;;;;;;;14.00;2.30;;;14.80;99.90;;;;;;5064165;28;20045;-76
2022/10/11 11:20:13;;;;;;;11.80;2.45;;;14.60;99.90;;;;;;5050110;28;20207;-77
2022/10/11 11:22:58;;;;;;;14.00;2.38;;;14.50;99.90;;;;;;5066199;28;20052;-78
2022/10/11 11:25:36;;;;;;;12.10;2.10;;;14.50;99.90;;;;;;5059957;28;20136;-79
2022/10/11 11:28:28;;;;;;;12.98;2.03;;;14.50;99.90;;;;;;5066508;28;20171;-79
2022/10/11 11:31:38;;;;;;;14.38;2.10;;;14.50;99.90;;;;;;5049723;28;20106;-79
2022/10/11 11:34:12;;;;;;;13.27;2.63;;;14.70;99.90;;;;;;5049610;28;20491;-78
2022/10/11 11:36:46;;;;;;;15.85;2.42;;;14.90;99.90;;;;;;5043724;28;20056;-79
2022/10/11 11:39:17;;;;;;;18.50;2.75;;;14.90;99.90;;;;;;5050584;28;20044;-80
2022/10/11 11:41:51;;;;;;;17.88;2.50;;;14.90;99.90;;;;;;5050282;28;20051;-78
2022/10/11 11:44:26;;;;;;;17.20;2.67;;;14.90;99.90;;;;;;5085110;28;20050;-81
2022/10/11 11:47:04;;;;;;;16.45;2.60;;;14.80;99.90;;;;;;5067701;28;20071;-79
2022/10/11 11:49:36;;;;;;;17.83;2.63;;;14.70;99.90;;;;;;5062093;28;20064;-79
2022/10/11 11:52:05;;;;;;;14.38;2.10;;;14.70;99.90;;;;;;5049298;28;20055;-80
2022/10/11 11:54:53;;;;;;;18.02;2.40;;;14.50;99.90;;;;;;5062490;28;20480;-80
2022/10/11 11:57:37;;;;;;;14.52;2.53;;;14.50;99.90;;;;;;5062066;28;20075;-79
2022/10/11 12:00:20;;;;;;;16.38;3.00;;;14.50;99.90;;;;;;5066904;28;20036;-81
2022/10/11 12:03:02;;;;;;;14.38;2.58;;;14.40;99.90;;;;;;5052026;28;20063;-78
2022/10/11 12:05:32;;;;;;;14.60;2.20;;;14.40;99.90;;;;;;5066256;28;20129;-79
2022/10/11 12:08:07;;;;;;;14.60;2.45;;;14.40;99.90;;;;;;5071632;28;20055;-79
2022/10/11 12:10:48;;;;;;;15.10;1.95;;;14.40;99.90;;;;;;5056207;28;20062;-79
2022/10/11 12:13:26;;;;;;;15.05;2.22;;;14.30;99.90;;;;;;5055299;28;20109;-81
2022/10/11 12:16:11;;;;;;;14.52;2.25;;;14.40;99.90;;;;;;5060319;28;20465;-80
2022/10/11 12:18:49;;;;;;;17.38;2.67;;;14.30;99.90;;;;;;5044563;28;20123;-76
2022/10/11 12:21:20;;;;;;;16.98;2.60;;;14.30;99.90;;;;;;5074216;28;20043;-78
2022/10/11 12:23:52;;;;;;;17.33;2.17;;;14.30;99.90;;;;;;5057736;28;20054;-81
2022/10/11 12:26:27;;;;;;;14.05;2.72;;;14.40;99.90;;;;;;5055719;28;20384;-79
2022/10/11 12:29:20;;;;;;;12.18;2.10;;;14.30;99.90;;;;;;5065111;28;20082;-78
2022/10/11 12:31:57;;;;;;;13.52;2.25;;;14.50;99.90;;;;;;5064431;28;20044;-77
2022/10/11 12:34:38;;;;;;;10.82;1.80;;;14.70;99.90;;;;;;5055368;28;20071;-81
2022/10/11 12:37:19;;;;;;;12.43;2.17;;;14.70;99.90;;;;;;5068939;28;20043;-79
2022/10/11 12:39:58;;;;;;;16.17;2.08;;;15.10;99.90;;;;;;5062703;28;20119;-78
2022/10/11 12:42:27;;;;;;;16.65;2.45;;;15.20;99.90;;;;;;5065545;28;20062;-79
2022/10/11 12:45:11;;;;;;;18.33;2.60;;;15.40;99.90;;;;;;5067240;28;20055;-78
2022/10/11 12:47:52;;;;;;;18.35;2.35;;;15.60;99.90;;;;;;5065650;28;20118;-79
2022/10/11 12:50:44;;;;;;;14.43;2.58;;;15.90;99.90;;;;;;5047826;28;20532;-75
2022/10/11 12:53:38;;;;;;;7.70;1.80;;;15.90;99.90;;;;;;5050875;28;20096;-79
2022/10/11 12:56:31;;;;;;;11.73;1.90;;;15.70;99.90;;;;;;5065700;28;20055;-78
2022/10/11 12:59:03;;;;;;;11.43;1.85;;;15.60;99.90;;;;;;5060943;28;20502;-78
2022/10/11 13:01:47;;;;;;;19.50;2.42;;;15.50;99.90;;;;;;5078038;28;20036;-80
2022/10/11 13:04:17;;;;;;;9.07;1.77;;;15.30;99.90;;;;;;5067696;28;21150;-77
2022/10/11 13:06:55;;;;;;;13.85;2.45;;;15.30;99.90;;;;;;5048270;28;20040;-80
2022/10/11 13:09:35;;;;;;;14.20;2.65;;;15.20;99.90;;;;;;5048060;28;20777;-81